Hlavní strana
METAR-TAF:

METAR-TAF

Letiště :

Brescia Ghedi, Itálie

zeměpisná šířka: 45-25N, zeměpisná délka: 010-17E, výška: 102 m

Aktuální stav počasí

Zpráva byla vytvořena před 1 hodinou a 4 minutami, v 09:55 UTC
Severoseverovýchodní vítr 3 kt
Teplota 31°C
Vlhkost vzduchu 31%
Tlak 1017 hPa
Viditelnost 10 km a více
Žádná oblačnost pod 1500 m, nevyskytují se cumulonimby.

METAR: LIPL 200955Z 03003KT CAVOK 31/12 Q1017 RMK SCT SCT200 VIS MIN 9999 WIND THR31 14005KT WIND THR13 11003KT BLU

Čas: 12:59 (10:59 UTC)

Předpověď počasí

Zpráva byla vytvořena před 2 hodinami a 59 minutami, v 08:00 UTC
Předpověď platná od 20 v 09 UTC do 20 v 18 UTC
vítr z různých směrů 5 kt
Viditelnost 10 km a více
Skoro jasno ve výšce 4000 ft

TAF: LIPL 200800Z 2009/2018 VRB05KT 9999 FEW040

Stav a předpovědi počasí z více než 4 000 letišť (zprávy METAR a TAF).

Červené a žluté tečky na mapě představují dostupné meteorologické stanice.

Když kurzor umístíte na tečku, zobrazí se název stanice.

Pak kliknutím zobrazíte stav a předpověď počasí.

Chcete-li změnit mapu, kliknutím na zelené tlačítko se znaménkem +mapu přiblížíte, kliknutím na zelené tlačítko se znaménkem – mapu oddálíte a kliknutím na zelené šipky přejdete na sousední mapy.


METAR-TAF: